sensor_id;sensor_type;location;lat;lon;timestamp;pressure;altitude;pressure_sealevel;temperature;humidity
64711;BME280;51139;45.626;6.850;2023-05-12T00:02:08;81461.34;;;5.13;100.00
64711;BME280;51139;45.626;6.850;2023-05-12T00:04:33;81470.00;;;4.97;100.00
64711;BME280;51139;45.626;6.850;2023-05-12T00:07:00;81465.84;;;4.30;100.00
64711;BME280;51139;45.626;6.850;2023-05-12T00:09:25;81471.09;;;4.22;100.00
64711;BME280;51139;45.626;6.850;2023-05-12T00:11:50;81468.06;;;4.57;100.00
64711;BME280;51139;45.626;6.850;2023-05-12T00:14:16;81462.91;;;4.82;100.00
64711;BME280;51139;45.626;6.850;2023-05-12T00:16:42;81457.69;;;4.11;100.00
64711;BME280;51139;45.626;6.850;2023-05-12T00:19:07;81459.47;;;4.64;100.00
64711;BME280;51139;45.626;6.850;2023-05-12T00:21:33;81460.75;;;4.89;100.00
64711;BME280;51139;45.626;6.850;2023-05-12T00:23:59;81459.78;;;4.76;100.00
64711;BME280;51139;45.626;6.850;2023-05-12T00:26:24;81460.22;;;4.49;100.00
64711;BME280;51139;45.626;6.850;2023-05-12T00:28:49;81455.09;;;4.67;100.00
64711;BME280;51139;45.626;6.850;2023-05-12T00:31:15;81462.13;;;4.49;100.00
64711;BME280;51139;45.626;6.850;2023-05-12T00:33:41;81452.63;;;4.13;100.00
64711;BME280;51139;45.626;6.850;2023-05-12T00:36:07;81449.97;;;4.28;100.00
64711;BME280;51139;45.626;6.850;2023-05-12T00:38:32;81447.59;;;4.56;100.00
64711;BME280;51139;45.626;6.850;2023-05-12T00:40:59;81449.94;;;4.85;100.00
64711;BME280;51139;45.626;6.850;2023-05-12T00:43:25;81452.97;;;4.65;100.00
64711;BME280;51139;45.626;6.850;2023-05-12T00:45:51;81451.16;;;4.35;100.00
64711;BME280;51139;45.626;6.850;2023-05-12T00:48:17;81442.81;;;4.21;100.00
64711;BME280;51139;45.626;6.850;2023-05-12T00:50:43;81446.06;;;4.45;100.00
64711;BME280;51139;45.626;6.850;2023-05-12T00:53:08;81450.38;;;4.01;100.00
64711;BME280;51139;45.626;6.850;2023-05-12T00:55:34;81447.75;;;4.01;100.00
64711;BME280;51139;45.626;6.850;2023-05-12T00:58:01;81454.47;;;4.43;100.00
64711;BME280;51139;45.626;6.850;2023-05-12T01:00:26;81450.03;;;4.61;100.00
64711;BME280;51139;45.626;6.850;2023-05-12T01:02:52;81446.84;;;4.71;100.00
64711;BME280;51139;45.626;6.850;2023-05-12T01:05:18;81446.88;;;4.63;100.00
64711;BME280;51139;45.626;6.850;2023-05-12T01:07:45;81442.38;;;4.40;100.00
64711;BME280;51139;45.626;6.850;2023-05-12T01:10:20;81450.44;;;4.42;100.00
64711;BME280;51139;45.626;6.850;2023-05-12T01:12:46;81446.38;;;3.69;100.00
64711;BME280;51139;45.626;6.850;2023-05-12T01:15:12;81445.84;;;3.47;100.00
64711;BME280;51139;45.626;6.850;2023-05-12T01:17:39;81445.84;;;3.71;100.00
64711;BME280;51139;45.626;6.850;2023-05-12T01:20:07;81445.16;;;3.55;100.00
64711;BME280;51139;45.626;6.850;2023-05-12T01:22:34;81451.22;;;4.12;100.00
64711;BME280;51139;45.626;6.850;2023-05-12T01:25:02;81444.56;;;4.18;100.00
64711;BME280;51139;45.626;6.850;2023-05-12T01:27:28;81442.59;;;4.42;100.00
64711;BME280;51139;45.626;6.850;2023-05-12T01:29:57;81447.34;;;4.20;100.00
64711;BME280;51139;45.626;6.850;2023-05-12T01:32:22;81437.94;;;4.09;100.00
64711;BME280;51139;45.626;6.850;2023-05-12T01:34:48;81441.06;;;4.16;100.00
64711;BME280;51139;45.626;6.850;2023-05-12T01:37:14;81444.72;;;4.20;100.00
64711;BME280;51139;45.626;6.850;2023-05-12T01:39:40;81446.94;;;4.40;100.00
64711;BME280;51139;45.626;6.850;2023-05-12T01:42:06;81439.38;;;4.59;100.00
64711;BME280;51139;45.626;6.850;2023-05-12T01:44:31;81430.47;;;4.55;100.00
64711;BME280;51139;45.626;6.850;2023-05-12T01:46:57;81440.69;;;4.19;100.00
64711;BME280;51139;45.626;6.850;2023-05-12T01:49:22;81434.66;;;3.70;100.00
64711;BME280;51139;45.626;6.850;2023-05-12T01:51:48;81428.03;;;3.77;100.00
64711;BME280;51139;45.626;6.850;2023-05-12T01:54:14;81425.56;;;3.94;100.00
64711;BME280;51139;45.626;6.850;2023-05-12T01:56:39;81421.97;;;4.31;100.00
64711;BME280;51139;45.626;6.850;2023-05-12T01:59:05;81426.13;;;4.42;100.00
64711;BME280;51139;45.626;6.850;2023-05-12T02:01:31;81419.81;;;3.88;100.00
64711;BME280;51139;45.626;6.850;2023-05-12T02:03:57;81421.91;;;3.74;100.00
64711;BME280;51139;45.626;6.850;2023-05-12T02:06:23;81426.06;;;4.01;100.00
64711;BME280;51139;45.626;6.850;2023-05-12T02:08:49;81419.13;;;4.85;100.00
64711;BME280;51139;45.626;6.850;2023-05-12T02:11:15;81417.88;;;4.94;100.00
64711;BME280;51139;45.626;6.850;2023-05-12T02:13:40;81414.16;;;5.05;100.00
64711;BME280;51139;45.626;6.850;2023-05-12T02:16:08;81403.50;;;5.03;100.00
64711;BME280;51139;45.626;6.850;2023-05-12T02:18:34;81412.34;;;5.15;100.00
64711;BME280;51139;45.626;6.850;2023-05-12T02:20:59;81420.19;;;3.69;100.00
64711;BME280;51139;45.626;6.850;2023-05-12T02:23:24;81418.75;;;2.90;100.00
64711;BME280;51139;45.626;6.850;2023-05-12T02:25:50;81415.84;;;3.56;100.00
64711;BME280;51139;45.626;6.850;2023-05-12T02:28:15;81410.53;;;3.95;100.00
64711;BME280;51139;45.626;6.850;2023-05-12T02:30:48;81406.25;;;4.72;100.00
64711;BME280;51139;45.626;6.850;2023-05-12T02:33:15;81403.44;;;5.10;100.00
64711;BME280;51139;45.626;6.850;2023-05-12T02:35:40;81397.69;;;5.37;100.00
64711;BME280;51139;45.626;6.850;2023-05-12T02:38:06;81405.50;;;5.45;100.00
64711;BME280;51139;45.626;6.850;2023-05-12T02:40:31;81395.47;;;4.93;100.00
64711;BME280;51139;45.626;6.850;2023-05-12T02:42:56;81397.22;;;4.57;100.00
64711;BME280;51139;45.626;6.850;2023-05-12T02:45:22;81406.66;;;4.60;100.00
64711;BME280;51139;45.626;6.850;2023-05-12T02:47:48;81397.41;;;3.95;100.00
64711;BME280;51139;45.626;6.850;2023-05-12T02:50:14;81408.66;;;3.72;100.00
64711;BME280;51139;45.626;6.850;2023-05-12T02:52:40;81399.94;;;3.70;100.00
64711;BME280;51139;45.626;6.850;2023-05-12T02:55:06;81401.50;;;3.73;100.00
64711;BME280;51139;45.626;6.850;2023-05-12T02:57:31;81405.00;;;3.60;100.00
64711;BME280;51139;45.626;6.850;2023-05-12T03:00:02;81405.78;;;4.17;100.00
64711;BME280;51139;45.626;6.850;2023-05-12T03:02:32;81413.41;;;3.35;100.00
64711;BME280;51139;45.626;6.850;2023-05-12T03:04:57;81401.19;;;3.14;100.00
64711;BME280;51139;45.626;6.850;2023-05-12T03:07:22;81406.75;;;2.95;100.00
64711;BME280;51139;45.626;6.850;2023-05-12T03:09:48;81401.50;;;2.80;100.00
64711;BME280;51139;45.626;6.850;2023-05-12T03:12:13;81404.91;;;2.51;100.00
64711;BME280;51139;45.626;6.850;2023-05-12T03:14:39;81410.38;;;2.16;100.00
64711;BME280;51139;45.626;6.850;2023-05-12T03:17:04;81402.53;;;2.84;100.00
64711;BME280;51139;45.626;6.850;2023-05-12T03:19:30;81399.06;;;3.59;100.00
64711;BME280;51139;45.626;6.850;2023-05-12T03:21:55;81396.94;;;3.81;100.00
64711;BME280;51139;45.626;6.850;2023-05-12T03:24:20;81395.03;;;3.74;100.00
64711;BME280;51139;45.626;6.850;2023-05-12T03:26:46;81395.75;;;3.51;100.00
64711;BME280;51139;45.626;6.850;2023-05-12T03:29:12;81395.56;;;3.64;100.00
64711;BME280;51139;45.626;6.850;2023-05-12T03:31:37;81393.91;;;4.16;100.00
64711;BME280;51139;45.626;6.850;2023-05-12T03:34:03;81396.03;;;4.02;100.00
64711;BME280;51139;45.626;6.850;2023-05-12T03:36:28;81399.25;;;3.61;100.00
64711;BME280;51139;45.626;6.850;2023-05-12T03:38:53;81409.78;;;2.47;100.00
64711;BME280;51139;45.626;6.850;2023-05-12T03:41:19;81404.25;;;2.58;100.00
64711;BME280;51139;45.626;6.850;2023-05-12T03:43:46;81398.16;;;2.79;100.00
64711;BME280;51139;45.626;6.850;2023-05-12T03:46:11;81405.00;;;2.90;100.00
64711;BME280;51139;45.626;6.850;2023-05-12T03:48:37;81393.94;;;3.85;100.00
64711;BME280;51139;45.626;6.850;2023-05-12T03:51:03;81394.41;;;4.14;100.00
64711;BME280;51139;45.626;6.850;2023-05-12T03:53:29;81388.66;;;4.16;100.00
64711;BME280;51139;45.626;6.850;2023-05-12T03:55:54;81390.66;;;4.41;100.00
64711;BME280;51139;45.626;6.850;2023-05-12T03:58:21;81388.69;;;4.49;100.00
64711;BME280;51139;45.626;6.850;2023-05-12T04:00:47;81383.09;;;4.52;100.00
64711;BME280;51139;45.626;6.850;2023-05-12T04:03:14;81391.28;;;4.57;100.00
64711;BME280;51139;45.626;6.850;2023-05-12T04:05:40;81384.00;;;4.47;100.00
64711;BME280;51139;45.626;6.850;2023-05-12T04:08:07;81391.56;;;3.40;100.00
64711;BME280;51139;45.626;6.850;2023-05-12T04:10:32;81385.97;;;2.89;100.00
64711;BME280;51139;45.626;6.850;2023-05-12T04:13:02;81386.31;;;3.09;100.00
64711;BME280;51139;45.626;6.850;2023-05-12T04:15:27;81388.06;;;2.91;100.00
64711;BME280;51139;45.626;6.850;2023-05-12T04:17:52;81384.78;;;3.21;100.00
64711;BME280;51139;45.626;6.850;2023-05-12T04:20:18;81386.31;;;3.63;100.00
64711;BME280;51139;45.626;6.850;2023-05-12T04:22:43;81389.09;;;3.81;100.00
64711;BME280;51139;45.626;6.850;2023-05-12T04:25:08;81382.28;;;3.70;100.00
64711;BME280;51139;45.626;6.850;2023-05-12T04:27:34;81387.19;;;3.66;100.00
64711;BME280;51139;45.626;6.850;2023-05-12T04:29:59;81386.34;;;3.32;100.00
64711;BME280;51139;45.626;6.850;2023-05-12T04:32:25;81393.34;;;3.14;100.00
64711;BME280;51139;45.626;6.850;2023-05-12T04:34:50;81393.16;;;3.43;100.00
64711;BME280;51139;45.626;6.850;2023-05-12T04:37:16;81392.59;;;3.53;100.00
64711;BME280;51139;45.626;6.850;2023-05-12T04:39:41;81394.50;;;3.75;100.00
64711;BME280;51139;45.626;6.850;2023-05-12T04:42:06;81391.03;;;3.65;100.00
64711;BME280;51139;45.626;6.850;2023-05-12T04:44:32;81393.22;;;3.92;100.00
64711;BME280;51139;45.626;6.850;2023-05-12T04:46:58;81393.28;;;3.69;100.00
64711;BME280;51139;45.626;6.850;2023-05-12T04:49:24;81405.03;;;3.13;100.00
64711;BME280;51139;45.626;6.850;2023-05-12T04:51:49;81396.44;;;2.89;100.00
64711;BME280;51139;45.626;6.850;2023-05-12T04:54:15;81401.94;;;2.55;100.00
64711;BME280;51139;45.626;6.850;2023-05-12T04:56:40;81407.44;;;2.96;100.00
64711;BME280;51139;45.626;6.850;2023-05-12T04:59:05;81402.34;;;2.67;100.00
64711;BME280;51139;45.626;6.850;2023-05-12T05:01:31;81407.81;;;3.23;100.00
64711;BME280;51139;45.626;6.850;2023-05-12T05:03:56;81409.66;;;2.76;100.00
64711;BME280;51139;45.626;6.850;2023-05-12T05:06:22;81411.69;;;2.39;100.00
64711;BME280;51139;45.626;6.850;2023-05-12T05:08:47;81407.53;;;2.51;100.00
64711;BME280;51139;45.626;6.850;2023-05-12T05:11:12;81415.66;;;3.08;100.00
64711;BME280;51139;45.626;6.850;2023-05-12T05:13:38;81402.41;;;3.13;100.00
64711;BME280;51139;45.626;6.850;2023-05-12T05:16:03;81401.34;;;3.32;100.00
64711;BME280;51139;45.626;6.850;2023-05-12T05:18:29;81408.31;;;3.06;100.00
64711;BME280;51139;45.626;6.850;2023-05-12T05:20:54;81412.50;;;3.17;100.00
64711;BME280;51139;45.626;6.850;2023-05-12T05:23:20;81410.06;;;3.42;100.00
64711;BME280;51139;45.626;6.850;2023-05-12T05:25:45;81411.81;;;3.32;100.00
64711;BME280;51139;45.626;6.850;2023-05-12T05:28:11;81419.31;;;3.67;100.00
64711;BME280;51139;45.626;6.850;2023-05-12T05:30:36;81414.56;;;3.88;100.00
64711;BME280;51139;45.626;6.850;2023-05-12T05:33:01;81411.69;;;4.25;100.00
64711;BME280;51139;45.626;6.850;2023-05-12T05:35:27;81414.59;;;4.45;100.00
64711;BME280;51139;45.626;6.850;2023-05-12T05:37:52;81411.47;;;4.31;100.00
64711;BME280;51139;45.626;6.850;2023-05-12T05:40:18;81417.34;;;3.98;100.00
64711;BME280;51139;45.626;6.850;2023-05-12T05:42:44;81415.63;;;3.85;100.00
64711;BME280;51139;45.626;6.850;2023-05-12T05:45:10;81421.38;;;3.84;100.00
64711;BME280;51139;45.626;6.850;2023-05-12T05:47:35;81421.56;;;3.78;100.00
64711;BME280;51139;45.626;6.850;2023-05-12T05:50:05;81417.03;;;3.71;100.00
64711;BME280;51139;45.626;6.850;2023-05-12T05:52:30;81421.78;;;3.41;100.00
64711;BME280;51139;45.626;6.850;2023-05-12T05:54:56;81412.84;;;3.21;100.00
64711;BME280;51139;45.626;6.850;2023-05-12T05:57:21;81412.97;;;3.93;100.00
64711;BME280;51139;45.626;6.850;2023-05-12T05:59:47;81415.16;;;4.35;100.00
64711;BME280;51139;45.626;6.850;2023-05-12T06:02:12;81412.84;;;4.40;100.00
64711;BME280;51139;45.626;6.850;2023-05-12T06:04:38;81418.91;;;4.58;100.00
64711;BME280;51139;45.626;6.850;2023-05-12T06:07:03;81416.34;;;4.42;100.00
64711;BME280;51139;45.626;6.850;2023-05-12T06:09:28;81418.06;;;5.21;100.00
64711;BME280;51139;45.626;6.850;2023-05-12T06:11:54;81416.69;;;5.20;100.00
64711;BME280;51139;45.626;6.850;2023-05-12T06:14:21;81415.53;;;5.06;100.00
64711;BME280;51139;45.626;6.850;2023-05-12T06:16:46;81414.06;;;4.87;100.00
64711;BME280;51139;45.626;6.850;2023-05-12T06:19:11;81421.34;;;4.63;100.00
64711;BME280;51139;45.626;6.850;2023-05-12T06:21:37;81424.03;;;4.48;100.00
64711;BME280;51139;45.626;6.850;2023-05-12T06:24:03;81419.28;;;4.54;100.00
64711;BME280;51139;45.626;6.850;2023-05-12T06:26:28;81425.06;;;3.65;100.00
64711;BME280;51139;45.626;6.850;2023-05-12T06:28:53;81424.84;;;4.02;100.00
64711;BME280;51139;45.626;6.850;2023-05-12T06:31:20;81424.47;;;4.13;100.00
64711;BME280;51139;45.626;6.850;2023-05-12T06:33:45;81420.25;;;4.74;100.00
64711;BME280;51139;45.626;6.850;2023-05-12T06:36:11;81411.19;;;5.01;100.00
64711;BME280;51139;45.626;6.850;2023-05-12T06:38:36;81409.19;;;5.42;100.00
64711;BME280;51139;45.626;6.850;2023-05-12T06:41:02;81411.66;;;5.40;100.00
64711;BME280;51139;45.626;6.850;2023-05-12T06:43:27;81415.47;;;4.88;100.00
64711;BME280;51139;45.626;6.850;2023-05-12T06:45:53;81418.78;;;4.48;100.00
64711;BME280;51139;45.626;6.850;2023-05-12T06:48:18;81416.53;;;4.44;100.00
64711;BME280;51139;45.626;6.850;2023-05-12T06:50:44;81416.53;;;4.44;100.00
64711;BME280;51139;45.626;6.850;2023-05-12T06:53:09;81415.09;;;4.92;100.00
64711;BME280;51139;45.626;6.850;2023-05-12T06:55:35;81418.19;;;4.08;100.00
64711;BME280;51139;45.626;6.850;2023-05-12T06:58:00;81417.16;;;3.96;100.00
64711;BME280;51139;45.626;6.850;2023-05-12T07:00:26;81428.81;;;4.26;100.00
64711;BME280;51139;45.626;6.850;2023-05-12T07:02:51;81425.72;;;3.89;100.00
64711;BME280;51139;45.626;6.850;2023-05-12T07:05:17;81427.47;;;4.09;100.00
64711;BME280;51139;45.626;6.850;2023-05-12T07:07:45;81423.66;;;3.02;100.00
64711;BME280;51139;45.626;6.850;2023-05-12T07:10:11;81425.03;;;3.96;100.00
64711;BME280;51139;45.626;6.850;2023-05-12T07:12:36;81416.94;;;5.07;100.00
64711;BME280;51139;45.626;6.850;2023-05-12T07:15:03;81421.72;;;5.51;99.46
64711;BME280;51139;45.626;6.850;2023-05-12T07:17:29;81418.25;;;5.49;100.00
64711;BME280;51139;45.626;6.850;2023-05-12T07:19:54;81422.13;;;5.48;100.00
64711;BME280;51139;45.626;6.850;2023-05-12T07:22:20;81420.09;;;5.38;100.00
64711;BME280;51139;45.626;6.850;2023-05-12T07:24:46;81423.31;;;5.21;100.00
64711;BME280;51139;45.626;6.850;2023-05-12T07:27:11;81429.00;;;5.10;100.00
64711;BME280;51139;45.626;6.850;2023-05-12T07:29:37;81428.75;;;5.23;100.00
64711;BME280;51139;45.626;6.850;2023-05-12T07:32:04;81422.63;;;5.46;100.00
64711;BME280;51139;45.626;6.850;2023-05-12T07:34:31;81423.06;;;4.68;100.00
64711;BME280;51139;45.626;6.850;2023-05-12T07:36:56;81421.56;;;4.50;100.00
64711;BME280;51139;45.626;6.850;2023-05-12T07:39:23;81421.94;;;4.87;94.80
64711;BME280;51139;45.626;6.850;2023-05-12T07:41:49;81421.69;;;5.34;93.26
64711;BME280;51139;45.626;6.850;2023-05-12T07:44:15;81413.53;;;5.47;100.00
64711;BME280;51139;45.626;6.850;2023-05-12T07:46:40;81416.72;;;5.89;93.56
64711;BME280;51139;45.626;6.850;2023-05-12T07:49:06;81414.56;;;5.77;92.05
64711;BME280;51139;45.626;6.850;2023-05-12T07:51:31;81415.56;;;5.82;95.95
64711;BME280;51139;45.626;6.850;2023-05-12T07:53:57;81415.75;;;6.02;92.67
64711;BME280;51139;45.626;6.850;2023-05-12T07:56:22;81416.84;;;6.16;89.92
64711;BME280;51139;45.626;6.850;2023-05-12T07:58:48;81412.72;;;6.31;86.66
64711;BME280;51139;45.626;6.850;2023-05-12T08:01:13;81411.94;;;6.55;88.30
64711;BME280;51139;45.626;6.850;2023-05-12T08:03:39;81400.25;;;6.66;87.35
64711;BME280;51139;45.626;6.850;2023-05-12T08:06:04;81403.00;;;6.86;86.31
64711;BME280;51139;45.626;6.850;2023-05-12T08:08:32;81393.69;;;7.03;86.46
64711;BME280;51139;45.626;6.850;2023-05-12T08:10:57;81392.41;;;6.76;80.10
64711;BME280;51139;45.626;6.850;2023-05-12T08:13:22;81390.34;;;6.39;82.93
64711;BME280;51139;45.626;6.850;2023-05-12T08:15:48;81388.16;;;6.46;82.21
64711;BME280;51139;45.626;6.850;2023-05-12T08:18:14;81385.53;;;6.46;81.17
64711;BME280;51139;45.626;6.850;2023-05-12T08:20:40;81392.09;;;6.72;93.17
64711;BME280;51139;45.626;6.850;2023-05-12T08:23:05;81390.53;;;6.86;97.31
64711;BME280;51139;45.626;6.850;2023-05-12T08:25:31;81391.22;;;6.87;100.00
64711;BME280;51139;45.626;6.850;2023-05-12T08:27:59;81390.34;;;7.02;100.00
64711;BME280;51139;45.626;6.850;2023-05-12T08:30:24;81388.09;;;6.98;100.00
64711;BME280;51139;45.626;6.850;2023-05-12T08:32:50;81392.78;;;7.18;100.00
64711;BME280;51139;45.626;6.850;2023-05-12T08:35:15;81387.41;;;6.98;100.00
64711;BME280;51139;45.626;6.850;2023-05-12T08:37:41;81395.59;;;6.75;97.92
64711;BME280;51139;45.626;6.850;2023-05-12T08:40:20;81399.16;;;6.97;95.03
64711;BME280;51139;45.626;6.850;2023-05-12T08:43:12;81392.88;;;7.65;92.23
64711;BME280;51139;45.626;6.850;2023-05-12T08:45:39;81397.06;;;7.78;95.48
64711;BME280;51139;45.626;6.850;2023-05-12T08:48:08;81398.09;;;7.55;89.90
64711;BME280;51139;45.626;6.850;2023-05-12T08:50:37;81396.81;;;7.19;91.74
64711;BME280;51139;45.626;6.850;2023-05-12T08:53:07;81397.31;;;7.07;89.79
64711;BME280;51139;45.626;6.850;2023-05-12T08:55:35;81403.47;;;6.75;90.16
64711;BME280;51139;45.626;6.850;2023-05-12T08:58:01;81412.03;;;6.93;97.89
64711;BME280;51139;45.626;6.850;2023-05-12T09:00:27;81405.59;;;6.59;94.81
64711;BME280;51139;45.626;6.850;2023-05-12T09:02:53;81402.41;;;6.78;96.02
64711;BME280;51139;45.626;6.850;2023-05-12T09:05:20;81401.69;;;7.22;94.94
64711;BME280;51139;45.626;6.850;2023-05-12T09:07:48;81399.91;;;6.80;94.37
64711;BME280;51139;45.626;6.850;2023-05-12T09:10:15;81407.63;;;6.95;100.00
64711;BME280;51139;45.626;6.850;2023-05-12T09:12:41;81403.75;;;7.88;88.06
64711;BME280;51139;45.626;6.850;2023-05-12T09:15:15;81396.19;;;7.65;94.20
64711;BME280;51139;45.626;6.850;2023-05-12T09:17:42;81406.25;;;7.86;88.47
64711;BME280;51139;45.626;6.850;2023-05-12T09:20:08;81402.19;;;7.38;90.85
64711;BME280;51139;45.626;6.850;2023-05-12T09:22:34;81398.22;;;7.57;88.34
64711;BME280;51139;45.626;6.850;2023-05-12T09:25:12;81402.16;;;7.66;93.65
64711;BME280;51139;45.626;6.850;2023-05-12T09:27:38;81405.47;;;7.56;92.67
64711;BME280;51139;45.626;6.850;2023-05-12T09:30:04;81407.81;;;7.62;90.08
64711;BME280;51139;45.626;6.850;2023-05-12T09:32:31;81400.31;;;7.96;87.59
64711;BME280;51139;45.626;6.850;2023-05-12T09:35:07;81402.41;;;7.97;77.59
64711;BME280;51139;45.626;6.850;2023-05-12T09:37:35;81400.78;;;8.12;82.12
64711;BME280;51139;45.626;6.850;2023-05-12T09:40:02;81399.25;;;8.18;85.10
64711;BME280;51139;45.626;6.850;2023-05-12T09:42:29;81392.19;;;7.74;85.30
64711;BME280;51139;45.626;6.850;2023-05-12T09:44:59;81400.91;;;8.24;85.57
64711;BME280;51139;45.626;6.850;2023-05-12T09:47:27;81390.22;;;8.22;72.37
64711;BME280;51139;45.626;6.850;2023-05-12T09:49:53;81392.81;;;8.02;73.58
64711;BME280;51139;45.626;6.850;2023-05-12T09:52:20;81390.59;;;7.98;93.99
64711;BME280;51139;45.626;6.850;2023-05-12T09:54:46;81389.69;;;8.33;90.75
64711;BME280;51139;45.626;6.850;2023-05-12T09:57:14;81394.44;;;8.44;91.37
64711;BME280;51139;45.626;6.850;2023-05-12T09:59:41;81382.25;;;8.49;83.34
64711;BME280;51139;45.626;6.850;2023-05-12T10:02:08;81391.91;;;8.27;89.10
64711;BME280;51139;45.626;6.850;2023-05-12T10:04:57;81383.78;;;8.52;87.37
64711;BME280;51139;45.626;6.850;2023-05-12T10:07:26;81385.66;;;8.32;88.10
64711;BME280;51139;45.626;6.850;2023-05-12T10:09:54;81382.66;;;8.55;80.83
64711;BME280;51139;45.626;6.850;2023-05-12T10:12:22;81382.09;;;8.67;72.25
64711;BME280;51139;45.626;6.850;2023-05-12T10:14:48;81385.84;;;8.83;77.79
64711;BME280;51139;45.626;6.850;2023-05-12T10:17:14;81382.25;;;8.69;79.22
64711;BME280;51139;45.626;6.850;2023-05-12T10:19:41;81377.25;;;8.63;76.73
64711;BME280;51139;45.626;6.850;2023-05-12T10:22:09;81383.88;;;9.23;74.97
64711;BME280;51139;45.626;6.850;2023-05-12T10:24:35;81376.00;;;8.64;77.56
64711;BME280;51139;45.626;6.850;2023-05-12T10:27:03;81377.09;;;8.81;77.35
64711;BME280;51139;45.626;6.850;2023-05-12T10:29:30;81379.72;;;9.10;72.69
64711;BME280;51139;45.626;6.850;2023-05-12T10:31:57;81377.31;;;9.24;75.70
64711;BME280;51139;45.626;6.850;2023-05-12T10:34:36;81387.69;;;8.90;78.72
64711;BME280;51139;45.626;6.850;2023-05-12T10:37:06;81380.56;;;9.03;83.17
64711;BME280;51139;45.626;6.850;2023-05-12T10:39:35;81380.09;;;9.36;77.13
64711;BME280;51139;45.626;6.850;2023-05-12T10:42:05;81366.47;;;9.40;66.95
64711;BME280;51139;45.626;6.850;2023-05-12T10:44:31;81370.38;;;9.39;67.17
64711;BME280;51139;45.626;6.850;2023-05-12T10:46:57;81365.56;;;9.67;70.83
64711;BME280;51139;45.626;6.850;2023-05-12T10:49:33;81367.34;;;9.13;74.07
64711;BME280;51139;45.626;6.850;2023-05-12T10:52:01;81371.03;;;9.49;73.53
64711;BME280;51139;45.626;6.850;2023-05-12T10:54:27;81368.41;;;9.39;72.87
64711;BME280;51139;45.626;6.850;2023-05-12T10:56:57;81374.09;;;9.45;67.11
64711;BME280;51139;45.626;6.850;2023-05-12T10:59:24;81363.69;;;9.38;67.39
64711;BME280;51139;45.626;6.850;2023-05-12T11:04:39;81369.00;;;9.18;71.07
64711;BME280;51139;45.626;6.850;2023-05-12T11:07:06;81372.63;;;9.23;73.85
64711;BME280;51139;45.626;6.850;2023-05-12T11:09:43;81369.19;;;8.81;76.74
64711;BME280;51139;45.626;6.850;2023-05-12T11:12:10;81371.53;;;8.96;68.90
64711;BME280;51139;45.626;6.850;2023-05-12T11:14:37;81374.03;;;9.04;68.67
64711;BME280;51139;45.626;6.850;2023-05-12T11:17:03;81371.09;;;9.19;69.92
64711;BME280;51139;45.626;6.850;2023-05-12T11:19:30;81368.56;;;9.31;69.82
64711;BME280;51139;45.626;6.850;2023-05-12T11:21:56;81372.66;;;9.03;71.83
64711;BME280;51139;45.626;6.850;2023-05-12T11:24:21;81364.44;;;8.99;74.08
64711;BME280;51139;45.626;6.850;2023-05-12T11:26:47;81371.97;;;8.93;72.07
64711;BME280;51139;45.626;6.850;2023-05-12T11:29:17;81372.78;;;8.66;73.42
64711;BME280;51139;45.626;6.850;2023-05-12T11:31:46;81381.56;;;8.68;73.16
64711;BME280;51139;45.626;6.850;2023-05-12T11:34:12;81377.09;;;8.41;74.74
64711;BME280;51139;45.626;6.850;2023-05-12T11:36:42;81384.56;;;8.45;76.38
64711;BME280;51139;45.626;6.850;2023-05-12T11:41:43;81389.91;;;8.84;69.42
64711;BME280;51139;45.626;6.850;2023-05-12T11:44:13;81383.44;;;8.38;66.63
64711;BME280;51139;45.626;6.850;2023-05-12T11:46:39;81394.75;;;7.92;68.22
64711;BME280;51139;45.626;6.850;2023-05-12T11:49:09;81391.06;;;8.24;71.55
64711;BME280;51139;45.626;6.850;2023-05-12T11:51:40;81403.16;;;8.27;78.11
64711;BME280;51139;45.626;6.850;2023-05-12T11:54:06;81399.41;;;7.73;77.16
64711;BME280;51139;45.626;6.850;2023-05-12T11:56:32;81406.72;;;8.12;74.48
64711;BME280;51139;45.626;6.850;2023-05-12T11:58:57;81405.47;;;8.13;75.73
64711;BME280;51139;45.626;6.850;2023-05-12T12:01:23;81408.88;;;8.33;74.89
64711;BME280;51139;45.626;6.850;2023-05-12T12:03:50;81411.22;;;6.02;85.10
64711;BME280;51139;45.626;6.850;2023-05-12T12:06:17;81419.03;;;6.63;91.25
64711;BME280;51139;45.626;6.850;2023-05-12T12:08:56;81419.72;;;6.81;84.34
64711;BME280;51139;45.626;6.850;2023-05-12T12:11:23;81422.97;;;7.34;81.42
64711;BME280;51139;45.626;6.850;2023-05-12T12:13:53;81426.06;;;7.50;85.70
64711;BME280;51139;45.626;6.850;2023-05-12T12:16:27;81422.56;;;7.38;86.22
64711;BME280;51139;45.626;6.850;2023-05-12T12:18:53;81424.66;;;7.77;85.09
64711;BME280;51139;45.626;6.850;2023-05-12T12:21:19;81427.72;;;7.18;91.65
64711;BME280;51139;45.626;6.850;2023-05-12T12:23:45;81432.81;;;5.93;94.98
64711;BME280;51139;45.626;6.850;2023-05-12T12:26:11;81434.63;;;6.08;92.54
64711;BME280;51139;45.626;6.850;2023-05-12T12:28:36;81440.47;;;5.98;100.00
